createdAt,value
2023-02-11T00:01:35.305Z,21.50
2023-02-11T00:04:05.502Z,20.47
2023-02-11T00:06:34.883Z,22.00
2023-02-11T00:09:02.872Z,21.00
2023-02-11T00:11:30.824Z,20.63
2023-02-11T00:14:00.930Z,19.97
2023-02-11T00:16:29.612Z,20.60
2023-02-11T00:18:59.001Z,21.17
2023-02-11T00:21:27.889Z,20.33
2023-02-11T00:23:57.375Z,20.23
2023-02-11T00:26:56.050Z,20.83
2023-02-11T00:29:23.748Z,21.50
2023-02-11T00:31:51.554Z,21.30
2023-02-11T00:34:19.097Z,22.10
2023-02-11T00:36:46.599Z,21.30
2023-02-11T00:39:14.162Z,21.53
2023-02-11T00:41:41.849Z,21.37
2023-02-11T00:44:09.338Z,21.40
2023-02-11T00:46:36.832Z,20.70
2023-02-11T00:49:04.437Z,20.80
2023-02-11T00:51:31.891Z,20.77
2023-02-11T00:53:59.440Z,26.07
2023-02-11T00:56:27.473Z,27.73
2023-02-11T00:58:55.058Z,22.77
2023-02-11T01:01:22.786Z,21.87
2023-02-11T01:03:50.763Z,22.47
2023-02-11T01:06:18.677Z,21.33
2023-02-11T01:08:46.253Z,22.20
2023-02-11T01:11:18.730Z,21.43
2023-02-11T01:13:48.780Z,22.50
2023-02-11T01:16:17.086Z,22.27
2023-02-11T01:18:45.594Z,23.53
2023-02-11T01:21:13.153Z,23.60
2023-02-11T01:23:40.800Z,22.97
2023-02-11T01:26:08.411Z,22.93
2023-02-11T01:28:35.997Z,23.30
2023-02-11T01:31:04.627Z,22.27
2023-02-11T01:33:32.212Z,22.67
2023-02-11T01:36:04.796Z,23.50
2023-02-11T01:38:33.522Z,24.13
2023-02-11T01:41:07.010Z,23.37
2023-02-11T01:43:42.306Z,25.03
2023-02-11T01:46:36.643Z,24.63
2023-02-11T01:49:20.395Z,24.30
2023-02-11T01:52:04.511Z,24.00
2023-02-11T01:54:59.949Z,24.17
2023-02-11T01:57:31.561Z,24.20
2023-02-11T02:00:01.791Z,32.93
2023-02-11T02:02:47.183Z,25.00
2023-02-11T02:05:24.971Z,23.53
2023-02-11T02:08:17.564Z,24.03
2023-02-11T02:10:49.750Z,24.23
2023-02-11T02:13:17.609Z,22.83
2023-02-11T02:16:12.265Z,23.03
2023-02-11T02:19:03.915Z,23.23
2023-02-11T02:22:14.397Z,23.53
2023-02-11T02:25:09.377Z,22.80
2023-02-11T02:28:12.842Z,23.97
2023-02-11T02:31:27.090Z,23.93
2023-02-11T02:34:10.520Z,24.53
2023-02-11T02:36:58.513Z,23.57
2023-02-11T02:39:30.810Z,23.27
2023-02-11T02:41:59.021Z,27.77
2023-02-11T02:44:26.813Z,31.03
2023-02-11T02:46:54.398Z,24.83
2023-02-11T02:49:21.892Z,23.73
2023-02-11T02:52:15.966Z,23.13
2023-02-11T02:55:22.552Z,23.27
2023-02-11T02:58:19.930Z,23.03
2023-02-11T03:01:11.378Z,23.23
2023-02-11T03:04:27.301Z,22.30
2023-02-11T03:07:06.408Z,22.77
2023-02-11T03:10:00.369Z,23.73
2023-02-11T03:12:32.133Z,22.83
2023-02-11T03:15:02.215Z,23.13
2023-02-11T03:17:34.389Z,21.50
2023-02-11T03:20:04.486Z,21.50
2023-02-11T03:22:41.948Z,22.20
2023-02-11T03:25:10.233Z,22.63
2023-02-11T03:27:48.322Z,22.10
2023-02-11T03:30:29.066Z,22.10
2023-02-11T03:33:09.439Z,22.00
2023-02-11T03:36:05.158Z,20.97
2023-02-11T03:38:38.679Z,22.07
2023-02-11T03:41:08.661Z,21.47
2023-02-11T03:43:44.816Z,21.83
2023-02-11T03:46:15.329Z,21.87
2023-02-11T03:48:49.978Z,21.33
2023-02-11T03:51:18.223Z,21.67
2023-02-11T03:53:47.306Z,21.37
2023-02-11T03:56:22.101Z,21.27
2023-02-11T03:58:49.729Z,21.07
2023-02-11T04:01:17.339Z,20.53
2023-02-11T04:03:44.802Z,21.27
2023-02-11T04:06:12.366Z,20.97
2023-02-11T04:08:39.791Z,21.83
2023-02-11T04:11:07.256Z,21.63
2023-02-11T04:13:34.730Z,21.37
2023-02-11T04:16:02.207Z,21.40
2023-02-11T04:18:29.732Z,22.63
2023-02-11T04:20:57.249Z,22.37
2023-02-11T04:23:24.714Z,21.40
2023-02-11T04:25:52.427Z,21.87
2023-02-11T04:28:20.295Z,22.10
2023-02-11T04:30:50.160Z,23.43
2023-02-11T04:33:18.058Z,21.63
2023-02-11T04:35:45.802Z,21.93
2023-02-11T04:38:13.649Z,22.73
2023-02-11T04:40:41.509Z,24.37
2023-02-11T04:43:09.033Z,24.10
2023-02-11T04:45:36.553Z,21.80
2023-02-11T04:48:04.729Z,23.50
2023-02-11T04:50:32.156Z,21.87
2023-02-11T04:52:59.681Z,21.00
2023-02-11T04:55:27.181Z,21.67
2023-02-11T04:57:55.472Z,22.30
2023-02-11T05:00:23.251Z,20.50
2023-02-11T05:02:50.674Z,22.20
2023-02-11T05:05:18.303Z,21.97
2023-02-11T05:07:45.934Z,21.53
2023-02-11T05:10:13.358Z,21.63
2023-02-11T05:12:40.787Z,21.30
2023-02-11T05:15:08.640Z,20.40
2023-02-11T05:17:36.128Z,20.27
2023-02-11T05:20:03.908Z,21.83
2023-02-11T05:22:31.416Z,20.57
2023-02-11T05:24:58.857Z,20.97
2023-02-11T05:27:26.320Z,20.33
2023-02-11T05:29:53.838Z,20.60
2023-02-11T05:32:21.305Z,21.40
2023-02-11T05:34:48.777Z,19.90
2023-02-11T05:37:16.509Z,19.97
2023-02-11T05:39:44.020Z,20.23
2023-02-11T05:42:11.616Z,20.17
2023-02-11T05:44:39.253Z,19.00
2023-02-11T05:47:09.199Z,19.63
2023-02-11T05:49:36.690Z,20.40
2023-02-11T05:52:04.505Z,19.33
2023-02-11T05:54:32.002Z,19.67
2023-02-11T05:56:59.485Z,18.80
2023-02-11T05:59:26.967Z,19.23
2023-02-11T06:01:54.406Z,18.20
2023-02-11T06:04:22.090Z,19.43
2023-02-11T06:06:49.593Z,19.67
2023-02-11T06:09:17.061Z,18.50
2023-02-11T06:11:44.520Z,18.93
2023-02-11T06:14:12.241Z,19.50
2023-02-11T06:16:39.723Z,18.30
2023-02-11T06:19:07.164Z,19.37
2023-02-11T06:21:43.340Z,19.13
2023-02-11T06:24:12.649Z,19.30
2023-02-11T06:26:40.377Z,19.97
2023-02-11T06:29:07.911Z,20.37
2023-02-11T06:31:37.871Z,20.57
2023-02-11T06:34:05.519Z,21.03
2023-02-11T06:36:32.997Z,20.50
2023-02-11T06:39:00.560Z,19.47
2023-02-11T06:41:28.086Z,19.77
2023-02-11T06:43:55.664Z,20.00
2023-02-11T06:46:23.513Z,21.47
2023-02-11T06:48:51.027Z,22.67
2023-02-11T06:51:18.613Z,21.63
2023-02-11T06:53:47.238Z,20.77
2023-02-11T06:56:18.855Z,21.40
2023-02-11T06:58:47.883Z,20.93
2023-02-11T07:01:16.943Z,21.60
2023-02-11T07:03:46.893Z,21.53
2023-02-11T07:06:24.933Z,20.47
2023-02-11T07:24:38.118Z,21.10
2023-02-11T07:27:05.684Z,27.10
2023-02-11T07:29:33.398Z,24.00
2023-02-11T07:32:00.916Z,22.63
2023-02-11T07:34:28.504Z,20.20
2023-02-11T07:36:56.012Z,18.23
2023-02-11T07:39:27.641Z,20.00
2023-02-11T07:41:55.349Z,19.23
2023-02-11T07:44:23.401Z,19.27
2023-02-11T07:46:50.923Z,19.73
2023-02-11T07:49:18.436Z,18.53
2023-02-11T07:51:46.217Z,18.60
2023-02-11T07:54:13.703Z,17.77
2023-02-11T07:56:41.204Z,18.30
2023-02-11T07:59:08.694Z,19.00
2023-02-11T08:01:36.239Z,19.10
2023-02-11T08:04:04.706Z,18.30
2023-02-11T08:06:35.174Z,17.93
2023-02-11T08:09:09.056Z,19.37
2023-02-11T08:11:37.104Z,20.20
2023-02-11T08:14:04.533Z,19.33
2023-02-11T08:16:39.034Z,19.20
2023-02-11T08:19:14.705Z,19.20
2023-02-11T08:21:43.246Z,19.07
2023-02-11T08:24:11.322Z,19.23
2023-02-11T08:26:38.921Z,20.30
2023-02-11T08:29:12.091Z,19.63
2023-02-11T08:31:43.858Z,18.27
2023-02-11T08:34:14.521Z,19.67
2023-02-11T08:36:43.949Z,19.60
2023-02-11T08:39:20.444Z,22.13
2023-02-11T08:41:57.020Z,21.00
2023-02-11T08:44:25.101Z,20.33
2023-02-11T08:46:53.024Z,20.10
2023-02-11T08:49:21.358Z,20.17
2023-02-11T08:51:49.903Z,20.67
2023-02-11T08:54:17.589Z,19.97
2023-02-11T08:56:45.545Z,21.40
2023-02-11T08:59:19.057Z,21.07
2023-02-11T09:01:47.930Z,21.70
2023-02-11T09:04:18.686Z,20.73
2023-02-11T09:06:46.474Z,21.23
2023-02-11T09:09:16.479Z,20.97
2023-02-11T09:11:45.776Z,20.63
2023-02-11T09:14:22.581Z,21.80
2023-02-11T09:16:50.857Z,21.87
2023-02-11T09:19:18.986Z,21.60
2023-02-11T09:21:47.073Z,22.97
2023-02-11T09:24:14.736Z,22.07
2023-02-11T09:26:43.796Z,22.67
2023-02-11T09:29:11.479Z,21.50
2023-02-11T09:31:39.220Z,21.60
2023-02-11T09:34:07.247Z,20.50
2023-02-11T09:36:38.793Z,21.70
2023-02-11T09:39:12.139Z,20.43
2023-02-11T09:42:22.083Z,20.57
2023-02-11T09:44:50.183Z,20.00
2023-02-11T09:47:35.032Z,19.70
2023-02-11T09:50:13.768Z,20.13
2023-02-11T09:52:59.025Z,20.07
2023-02-11T09:55:36.795Z,19.60
2023-02-11T09:58:18.056Z,19.20
2023-02-11T10:01:37.994Z,19.40
2023-02-11T10:04:18.468Z,20.03
2023-02-11T10:06:58.475Z,19.93
2023-02-11T10:10:21.768Z,18.63
2023-02-11T10:13:16.957Z,18.57
2023-02-11T10:16:08.506Z,18.57
2023-02-11T10:19:28.417Z,18.43
2023-02-11T10:22:12.701Z,18.10
2023-02-11T10:24:43.228Z,17.47
2023-02-11T10:27:21.217Z,18.07
2023-02-11T10:30:05.607Z,17.77
2023-02-11T10:32:49.581Z,17.20
2023-02-11T10:35:24.874Z,17.27
2023-02-11T10:37:52.272Z,16.97
2023-02-11T10:40:29.693Z,17.07
2023-02-11T10:43:02.872Z,17.50
2023-02-11T10:45:48.233Z,16.87
2023-02-11T10:48:53.562Z,17.00
2023-02-11T10:51:34.425Z,18.43
2023-02-11T10:54:04.433Z,20.83
2023-02-11T10:56:36.253Z,18.30
2023-02-11T10:59:21.693Z,19.03
2023-02-11T11:02:02.107Z,17.33
2023-02-11T11:04:44.195Z,18.13
2023-02-11T11:07:20.505Z,18.17
2023-02-11T11:09:59.432Z,18.67
2023-02-11T11:12:48.640Z,18.37
2023-02-11T11:15:28.076Z,18.47
2023-02-11T11:18:22.448Z,19.40
2023-02-11T11:21:00.412Z,19.50
2023-02-11T11:23:30.584Z,18.67
2023-02-11T11:26:12.763Z,19.50
2023-02-11T11:29:01.931Z,19.80
2023-02-11T11:31:37.894Z,19.50
2023-02-11T11:34:32.678Z,18.63
2023-02-11T11:37:09.764Z,18.03
2023-02-11T11:39:37.292Z,18.37
2023-02-11T11:42:26.315Z,19.13
2023-02-11T11:45:04.777Z,20.17
2023-02-11T11:48:23.036Z,18.47
2023-02-11T11:51:02.625Z,19.27
2023-02-11T11:53:46.649Z,19.67
2023-02-11T11:57:04.923Z,18.70
2023-02-11T11:59:32.955Z,19.10
2023-02-11T12:02:39.097Z,17.67
2023-02-11T12:05:27.441Z,19.80
2023-02-11T12:08:36.070Z,19.63
2023-02-11T12:11:29.414Z,18.93
2023-02-11T12:14:28.559Z,20.97
2023-02-11T12:58:02.036Z,17.17
2023-02-11T13:00:47.247Z,17.33
2023-02-11T13:03:26.750Z,18.03
2023-02-11T13:06:00.423Z,17.30
2023-02-11T13:08:41.104Z,16.53
2023-02-11T13:11:33.456Z,17.67
2023-02-11T13:14:12.892Z,18.03
2023-02-11T13:16:45.919Z,21.13
2023-02-11T13:19:27.595Z,20.07
2023-02-11T13:22:02.809Z,18.43
2023-02-11T13:24:49.598Z,17.60
2023-02-11T13:27:59.512Z,18.07
2023-02-11T13:30:35.334Z,17.53
2023-02-11T13:33:14.698Z,16.37
2023-02-11T13:35:57.694Z,17.33
2023-02-11T13:38:31.131Z,16.70
2023-02-11T13:41:32.351Z,15.90
2023-02-11T13:44:11.541Z,16.70
2023-02-11T13:47:08.534Z,17.00
2023-02-11T13:49:40.965Z,16.30
2023-02-11T13:52:30.253Z,17.00
2023-02-11T13:55:21.687Z,17.00
2023-02-11T13:58:09.224Z,16.33
2023-02-11T14:00:37.080Z,16.40
2023-02-11T14:03:32.099Z,16.70
2023-02-11T14:06:27.059Z,15.53
2023-02-11T14:09:09.318Z,15.73
2023-02-11T14:11:48.074Z,16.30
2023-02-11T14:14:34.161Z,15.50
2023-02-11T14:17:07.901Z,15.97
2023-02-11T14:19:45.478Z,14.63
2023-02-11T14:22:29.878Z,15.13
2023-02-11T14:25:02.695Z,15.93
2023-02-11T14:27:57.958Z,15.13
2023-02-11T14:30:45.339Z,15.23
2023-02-11T14:33:59.741Z,15.93
2023-02-11T14:37:00.052Z,15.53
2023-02-11T14:40:15.978Z,14.83
2023-02-11T14:42:43.807Z,14.87
2023-02-11T14:45:18.919Z,14.80
2023-02-11T14:48:14.496Z,14.37
2023-02-11T14:51:16.508Z,15.43
2023-02-11T14:54:17.195Z,15.07
2023-02-11T14:56:46.983Z,15.03
2023-02-11T14:59:23.330Z,15.13
2023-02-11T15:01:56.382Z,15.87
2023-02-11T15:04:36.620Z,15.40
2023-02-11T15:07:10.829Z,15.50
2023-02-11T15:09:43.377Z,16.83
2023-02-11T15:12:26.042Z,17.20
2023-02-11T15:15:00.792Z,17.63
2023-02-11T15:17:32.101Z,16.47
2023-02-11T15:20:02.412Z,16.77
2023-02-11T15:22:34.042Z,17.10
2023-02-11T15:25:09.897Z,15.80
2023-02-11T15:27:48.323Z,16.07
2023-02-11T15:30:21.878Z,17.63
2023-02-11T15:32:52.417Z,16.60
2023-02-11T15:35:20.008Z,16.33
2023-02-11T15:37:50.209Z,16.53
2023-02-11T15:40:23.217Z,17.30
2023-02-11T15:42:58.073Z,17.20
2023-02-11T15:45:33.966Z,16.37
2023-02-11T15:48:14.864Z,17.93
2023-02-11T15:50:43.939Z,16.20
2023-02-11T15:53:27.738Z,17.23
2023-02-11T15:56:17.756Z,16.87
2023-02-11T15:58:48.372Z,17.10
2023-02-11T16:01:16.408Z,16.67
2023-02-11T16:03:44.599Z,16.60
2023-02-11T16:06:29.612Z,17.80
2023-02-11T16:09:06.487Z,16.93
2023-02-11T16:11:38.529Z,16.63
2023-02-11T16:14:27.188Z,16.83
2023-02-11T16:17:29.209Z,17.13
2023-02-11T16:19:56.957Z,17.37
2023-02-11T16:22:30.463Z,18.60
2023-02-11T16:24:59.836Z,17.40
2023-02-11T16:27:36.052Z,17.60
2023-02-11T16:30:04.315Z,17.40
2023-02-11T16:32:31.989Z,16.83
2023-02-11T16:35:04.300Z,17.27
2023-02-11T16:37:32.490Z,16.47
2023-02-11T16:39:59.967Z,16.03
2023-02-11T16:42:27.478Z,17.13
2023-02-11T16:44:54.902Z,16.77
2023-02-11T16:47:28.181Z,16.33
2023-02-11T16:49:57.039Z,16.37
2023-02-11T16:52:25.813Z,16.50
2023-02-11T16:54:53.613Z,15.93
2023-02-11T16:57:25.713Z,15.70
2023-02-11T16:59:53.936Z,17.23
2023-02-11T17:02:27.816Z,24.37
2023-02-11T17:04:59.160Z,17.80
2023-02-11T17:07:27.263Z,15.83
2023-02-11T17:09:54.781Z,15.13
2023-02-11T17:12:25.532Z,17.67
2023-02-11T17:14:54.191Z,14.90
2023-02-11T17:17:23.948Z,16.13
2023-02-11T17:19:51.545Z,14.00
2023-02-11T17:22:19.137Z,12.80
2023-02-11T17:24:46.588Z,13.17
2023-02-11T17:27:14.213Z,13.77
2023-02-11T17:29:42.110Z,15.07
2023-02-11T17:32:09.673Z,14.00
2023-02-11T17:34:37.210Z,14.10
2023-02-11T17:37:09.284Z,16.00
2023-02-11T17:39:39.665Z,12.97
2023-02-11T17:42:08.880Z,12.90
2023-02-11T17:44:36.589Z,12.73
2023-02-11T17:47:04.317Z,12.53
2023-02-11T17:49:31.736Z,13.40
2023-02-11T17:51:59.221Z,13.37
2023-02-11T17:54:26.713Z,12.60
2023-02-11T17:56:57.810Z,13.23
2023-02-11T17:59:26.193Z,12.60
2023-02-11T18:01:53.678Z,13.60
2023-02-11T18:04:21.237Z,12.90
2023-02-11T18:06:48.972Z,14.47
2023-02-11T18:09:16.440Z,13.47
2023-02-11T18:11:43.845Z,13.33
2023-02-11T18:14:11.893Z,12.53
2023-02-11T18:16:43.171Z,12.77
2023-02-11T18:19:12.019Z,13.33
2023-02-11T18:21:39.792Z,13.13
2023-02-11T18:24:07.434Z,13.60
2023-02-11T18:26:35.599Z,12.70
2023-02-11T18:29:04.072Z,12.83
2023-02-11T18:31:31.823Z,11.90
2023-02-11T18:33:59.358Z,13.33
2023-02-11T18:36:26.767Z,13.53
2023-02-11T18:38:54.506Z,12.10
2023-02-11T18:41:22.080Z,13.17
2023-02-11T18:43:50.109Z,11.90
2023-02-11T18:46:17.899Z,12.23
2023-02-11T18:48:45.598Z,13.30
2023-02-11T18:51:18.475Z,13.07
2023-02-11T18:53:46.136Z,12.57
2023-02-11T18:56:20.795Z,12.83
2023-02-11T18:58:49.192Z,13.07
2023-02-11T19:01:19.448Z,11.47
2023-02-11T19:03:47.227Z,13.10
2023-02-11T19:06:18.385Z,12.37
2023-02-11T19:08:46.844Z,12.37
2023-02-11T19:11:16.344Z,12.20
2023-02-11T19:13:43.799Z,12.43
2023-02-11T19:16:14.085Z,12.13
2023-02-11T19:18:41.553Z,11.90
2023-02-11T19:21:11.371Z,13.47
2023-02-11T19:23:38.957Z,12.00
2023-02-11T19:26:06.655Z,11.33
2023-02-11T19:28:37.148Z,11.70
2023-02-11T19:31:09.601Z,12.00
2023-02-11T19:33:37.434Z,12.40
2023-02-11T19:36:07.493Z,13.00
2023-02-11T19:38:36.435Z,12.30
2023-02-11T19:41:04.081Z,13.33
2023-02-11T19:43:31.572Z,12.47
2023-02-11T19:45:59.083Z,35.67
2023-02-11T19:48:26.628Z,23.50
2023-02-11T19:50:54.797Z,13.27
2023-02-11T19:53:22.638Z,13.83
2023-02-11T19:55:50.460Z,12.97
2023-02-11T19:58:18.805Z,14.70
2023-02-11T20:00:46.241Z,15.10
2023-02-11T20:03:13.662Z,15.13
2023-02-11T20:05:43.648Z,13.40
2023-02-11T20:08:11.337Z,14.20
2023-02-11T20:10:38.807Z,15.83
2023-02-11T20:13:06.258Z,12.03
2023-02-11T20:15:33.723Z,12.67
2023-02-11T20:18:01.212Z,13.10
2023-02-11T20:20:28.720Z,16.73
2023-02-11T20:22:56.164Z,13.43
2023-02-11T20:25:23.614Z,11.40
2023-02-11T20:27:51.092Z,13.23
2023-02-11T20:30:18.625Z,12.50
2023-02-11T20:32:46.159Z,12.20
2023-02-11T20:35:13.556Z,14.13
2023-02-11T20:37:44.049Z,11.40
2023-02-11T20:40:12.405Z,11.10
2023-02-11T20:42:40.513Z,10.87
2023-02-11T20:45:08.577Z,12.23
2023-02-11T20:47:38.343Z,10.27
2023-02-11T20:50:06.965Z,10.90
2023-02-11T20:52:34.496Z,10.87
2023-02-11T20:55:02.010Z,11.17
2023-02-11T20:57:29.502Z,10.07
2023-02-11T20:59:57.336Z,9.60
2023-02-11T21:02:25.043Z,10.53
2023-02-11T21:04:52.531Z,10.10
2023-02-11T21:07:20.177Z,9.00
2023-02-11T21:09:47.757Z,10.17
2023-02-11T21:12:15.283Z,10.50
2023-02-11T21:14:42.707Z,10.10
2023-02-11T21:17:10.091Z,10.00
2023-02-11T21:19:37.524Z,9.87
2023-02-11T21:22:05.014Z,10.50
2023-02-11T21:24:32.678Z,9.87
2023-02-11T21:27:00.332Z,9.93
2023-02-11T21:29:27.757Z,9.73
2023-02-11T21:31:55.628Z,10.30
2023-02-11T21:34:23.052Z,9.93
2023-02-11T21:36:51.401Z,9.60
2023-02-11T21:39:20.528Z,10.10
2023-02-11T21:41:48.175Z,10.30
2023-02-11T21:44:15.663Z,10.53
2023-02-11T21:46:43.138Z,10.30
2023-02-11T21:49:11.003Z,9.80
2023-02-11T21:51:39.663Z,10.20
2023-02-11T21:54:07.096Z,10.77
2023-02-11T21:56:35.676Z,10.47
2023-02-11T21:59:03.593Z,10.47
2023-02-11T22:01:35.445Z,10.47
2023-02-11T22:04:03.276Z,10.60
2023-02-11T22:06:34.073Z,10.87
2023-02-11T22:09:08.267Z,10.90
2023-02-11T22:11:36.174Z,11.50
2023-02-11T22:14:03.926Z,11.13
2023-02-11T22:16:33.700Z,10.47
2023-02-11T22:19:02.683Z,10.83
2023-02-11T22:21:30.434Z,11.03
2023-02-11T22:23:58.065Z,11.43
2023-02-11T22:26:27.969Z,11.23
2023-02-11T22:28:56.213Z,10.83
2023-02-11T22:31:30.422Z,9.73
2023-02-11T22:33:59.072Z,10.13
2023-02-11T22:36:30.964Z,10.60
2023-02-11T22:39:03.490Z,9.67
2023-02-11T22:41:31.345Z,10.17
2023-02-11T22:43:59.003Z,10.67
2023-02-11T22:46:26.828Z,10.00
2023-02-11T22:48:54.404Z,10.03
2023-02-11T22:51:25.902Z,8.70
2023-02-11T22:54:02.822Z,9.77
2023-02-11T22:56:32.582Z,9.90
2023-02-11T22:59:04.050Z,10.37
2023-02-11T23:01:32.291Z,9.17
2023-02-11T23:04:02.052Z,10.13
2023-02-11T23:06:29.456Z,9.77
2023-02-11T23:08:56.994Z,9.43
2023-02-11T23:11:29.313Z,9.60
2023-02-11T23:13:57.284Z,10.30
2023-02-11T23:16:31.495Z,10.07
2023-02-11T23:19:07.160Z,10.13
2023-02-11T23:21:37.643Z,9.67
2023-02-11T23:24:11.536Z,9.47
2023-02-11T23:26:40.637Z,9.70
2023-02-11T23:29:08.670Z,9.40
2023-02-11T23:31:40.080Z,9.60
2023-02-11T23:34:08.754Z,10.37
2023-02-11T23:36:37.284Z,10.00
2023-02-11T23:39:05.316Z,10.53
2023-02-11T23:41:32.797Z,9.30
2023-02-11T23:44:00.334Z,9.53
2023-02-11T23:46:28.560Z,9.80
2023-02-11T23:48:56.464Z,9.53
2023-02-11T23:51:24.535Z,9.67
2023-02-11T23:53:52.866Z,9.27
2023-02-11T23:56:25.293Z,9.33
2023-02-11T23:58:55.618Z,9.00
